Ana Sayfa
METAR-TAF:

METAR-TAF

Havaalanları :

Ranong, Tayland

Enlem: 09-59N, Boylam: 098-37E, yükseklik: 7 m

Güncel hava durumu gözlemi

Rapor saat 18:00 UTC de 1 saat ve 40 dakika önce yapıldı.
Sakin rüzgar
Sıcaklık 27°C
Nem 89%
Basınç 1011 hPa
Görüş mesafesi 10 km veya daha fazla
2000 ft yükseklikte az bulutlu

METAR: VTSR 151800Z 00000KT 9999 FEW020 27/25 Q1011 NOSIG

Saat: 02:40 (19:40 UTC)

Tahmin

Rapor saat 17:00 UTC de 2 saat ve 40 dakika önce yapıldı.
Ayın 15'si saat 18 UTC'den ayın 16'si saat 18 UTC'ye kadar geçerli Tahmin
Rüzgar kuzeydan kt
Görüş mesafesi 10 km veya daha fazla
2000 ft yükseklikte az bulutlu
Dönüşüyor
ayın 16'si saat 04 UTC'den ayın 16'si saat 06 UTC'ye kadar
Rüzgar doğudan 5 kt

TAF: VTSR 151700Z 1518/1618 00000KT 9999 FEW020 BECMG 1604/1606 09005KT

4.000'den fazla havaalanı için hava durumu gözlemleri ve tahminleri (METAR ve TAF raporları).

Kullanılabilir istasyonlar harita üzerinde sarı ve kırmızı noktalarla gösterilir.

İstasyonun adını görmek için fareyi noktanın üzerinde gezdirin.

Sonrasında hava gözlem ve tahminlerini görmek için tıklayın.

Haritayı değiştirmek için: yaklaştırmak için siyah artı işaretli yeşil düğmeye ve uzaklaştırmak için de eksi işaretli düğmeye hızla tıklayın; bitişik haritalar için yeşil okları kullanın.


METAR-TAF: